METAR Data
IDs: Format: Raw Decoded Include TAF

Data at: 1215 UTC 26 Feb 2021

KVLL 261155Z AUTO 00000KT 10SM CLR M06/M07 A3036 RMK AO2 T10561072 11022 21061